Time;durP1;ratioP1;P1;durP2;ratioP2;P2;SDS_P1;SDS_P2;PMS_P1;PMS_P2;Temp;Humidity;BMP_temperature;BMP_pressure;BME280_temperature;BME280_humidity;BME280_pressure;Samples;Min_cycle;Max_cycle;Signal;HPM_P1;HPM_P2
2022/06/29 00:00:53;;;;;;;3.20;1.10;;;20.30;51.80;;;;;;5020897;28;20038;-73
2022/06/29 00:03:19;;;;;;;1.58;1.48;;;20.30;52.50;;;;;;4992599;28;20037;-73
2022/06/29 00:05:45;;;;;;;1.20;1.10;;;20.30;51.90;;;;;;5034910;28;20036;-74
2022/06/29 00:08:10;;;;;;;1.30;1.20;;;20.20;51.90;;;;;;5021277;28;20041;-73
2022/06/29 00:10:36;;;;;;;2.38;1.10;;;20.20;52.00;;;;;;5008058;28;20096;-73
2022/06/29 00:13:02;;;;;;;1.63;1.50;;;20.20;52.10;;;;;;5020670;28;20230;-73
2022/06/29 00:15:27;;;;;;;4.03;1.30;;;20.20;52.30;;;;;;5004613;28;20135;-73
2022/06/29 00:17:53;;;;;;;2.42;1.33;;;20.20;52.40;;;;;;5027904;28;20640;-73
2022/06/29 00:20:19;;;;;;;1.70;1.60;;;20.20;52.40;;;;;;5018745;28;20037;-73
2022/06/29 00:22:44;;;;;;;1.95;1.60;;;20.20;52.40;;;;;;5018798;28;20100;-73
2022/06/29 00:25:10;;;;;;;1.60;1.42;;;20.20;52.60;;;;;;4992588;28;20084;-74
2022/06/29 00:27:36;;;;;;;2.13;1.60;;;20.20;52.60;;;;;;5039361;28;20670;-73
2022/06/29 00:30:02;;;;;;;1.60;1.30;;;20.10;52.60;;;;;;5009317;28;25273;-73
2022/06/29 00:32:28;;;;;;;2.53;1.50;;;20.20;52.70;;;;;;5002671;28;20127;-74
2022/06/29 00:34:54;;;;;;;2.38;1.55;;;20.10;52.70;;;;;;5002971;28;20292;-73
2022/06/29 00:37:19;;;;;;;1.90;1.77;;;20.10;52.80;;;;;;5015361;28;20050;-73
2022/06/29 00:39:45;;;;;;;2.75;1.60;;;20.10;52.80;;;;;;4992279;28;20052;-74
2022/06/29 00:42:10;;;;;;;1.63;1.52;;;20.10;52.90;;;;;;4995541;28;20467;-74
2022/06/29 00:44:36;;;;;;;2.05;1.85;;;20.10;53.00;;;;;;5023067;28;20029;-74
2022/06/29 00:47:03;;;;;;;3.17;1.60;;;20.10;53.00;;;;;;5030075;28;20410;-73
2022/06/29 00:49:29;;;;;;;3.50;1.80;;;20.10;53.10;;;;;;5018194;28;20040;-73
2022/06/29 00:52:13;;;;;;;2.22;1.90;;;20.10;53.20;;;;;;5006199;28;20049;-73
2022/06/29 00:54:46;;;;;;;2.33;2.03;;;20.00;53.40;;;;;;5014361;28;20052;-73
2022/06/29 00:57:20;;;;;;;2.28;1.80;;;20.00;53.40;;;;;;4991062;28;20041;-74
2022/06/29 00:59:47;;;;;;;2.58;1.58;;;20.00;53.40;;;;;;4999811;28;20045;-74
2022/06/29 01:02:14;;;;;;;2.63;2.00;;;19.90;53.50;;;;;;5015368;28;20053;-74
2022/06/29 01:04:40;;;;;;;1.85;1.55;;;19.90;53.50;;;;;;5005148;28;20037;-74
2022/06/29 01:07:06;;;;;;;2.10;1.90;;;19.90;53.70;;;;;;5004177;28;20489;-73
2022/06/29 01:09:31;;;;;;;5.80;1.85;;;19.90;53.70;;;;;;4980457;28;20709;-73
2022/06/29 01:11:58;;;;;;;2.50;2.08;;;19.90;53.80;;;;;;5006157;28;20161;-73
2022/06/29 01:14:23;;;;;;;1.85;1.70;;;19.80;53.90;;;;;;5002874;28;20029;-73
2022/06/29 01:16:49;;;;;;;2.70;1.73;;;19.80;53.90;;;;;;5028866;28;20037;-72
2022/06/29 01:19:14;;;;;;;2.45;1.60;;;19.80;53.90;;;;;;4998127;28;20084;-73
2022/06/29 01:21:41;;;;;;;2.15;1.85;;;19.80;53.90;;;;;;5012830;28;20064;-73
2022/06/29 01:24:06;;;;;;;2.08;1.70;;;19.70;54.00;;;;;;5025192;28;20059;-73
2022/06/29 01:26:32;;;;;;;5.20;1.90;;;19.60;54.00;;;;;;5038388;28;21409;-73
2022/06/29 01:28:57;;;;;;;2.08;1.88;;;19.60;54.10;;;;;;5029343;28;20603;-74
2022/06/29 01:31:23;;;;;;;2.92;1.65;;;19.60;54.90;;;;;;5018471;28;20512;-74
2022/06/29 01:33:49;;;;;;;1.90;1.77;;;19.60;54.30;;;;;;4977020;28;20115;-73
2022/06/29 01:36:15;;;;;;;1.55;1.45;;;19.50;54.40;;;;;;5004346;28;20056;-72
2022/06/29 01:38:41;;;;;;;1.88;1.77;;;19.50;54.40;;;;;;5035838;28;20443;-73
2022/06/29 01:41:08;;;;;;;2.30;2.10;;;19.50;54.40;;;;;;5005873;28;20112;-73
2022/06/29 01:43:34;;;;;;;2.55;1.90;;;19.50;54.60;;;;;;4980252;28;20124;-73
2022/06/29 01:45:59;;;;;;;2.03;1.80;;;19.40;54.60;;;;;;4998851;28;20556;-73
2022/06/29 01:48:25;;;;;;;1.90;1.80;;;19.40;54.60;;;;;;4966730;28;20039;-73
2022/06/29 01:50:50;;;;;;;1.70;1.58;;;19.40;54.60;;;;;;4961236;28;20035;-73
2022/06/29 01:53:16;;;;;;;2.70;1.90;;;19.40;54.70;;;;;;4983995;28;20431;-73
2022/06/29 01:55:44;;;;;;;2.15;1.85;;;19.40;54.60;;;;;;4992108;28;20109;-72
2022/06/29 01:58:09;;;;;;;2.88;1.77;;;19.30;54.60;;;;;;4994324;28;20183;-73
2022/06/29 02:00:35;;;;;;;3.72;1.90;;;19.30;54.70;;;;;;5009295;28;20149;-73
2022/06/29 02:03:00;;;;;;;1.98;1.88;;;19.30;54.80;;;;;;4985514;28;20529;-74
2022/06/29 02:05:26;;;;;;;3.33;1.90;;;19.30;54.80;;;;;;4992520;28;20046;-73
2022/06/29 02:07:51;;;;;;;2.35;2.15;;;19.30;54.90;;;;;;4977438;28;20115;-73
2022/06/29 02:10:17;;;;;;;3.03;2.20;;;19.40;55.00;;;;;;4955920;28;20125;-73
2022/06/29 02:12:42;;;;;;;2.53;2.20;;;19.30;54.90;;;;;;4990188;28;20120;-72
2022/06/29 02:15:08;;;;;;;2.95;2.00;;;19.30;55.00;;;;;;4985550;28;20034;-73
2022/06/29 02:17:34;;;;;;;2.90;2.03;;;19.30;55.00;;;;;;4986611;28;20034;-73
2022/06/29 02:20:00;;;;;;;2.53;2.13;;;19.30;55.10;;;;;;4993653;28;20030;-74
2022/06/29 02:22:25;;;;;;;2.85;2.00;;;19.30;55.30;;;;;;5003979;28;20451;-74
2022/06/29 02:24:51;;;;;;;2.20;2.05;;;19.30;55.40;;;;;;5003794;28;20648;-73
2022/06/29 02:27:16;;;;;;;2.03;1.83;;;19.30;55.50;;;;;;4959009;28;20648;-74
2022/06/29 02:29:42;;;;;;;2.35;1.90;;;19.20;55.50;;;;;;4981289;28;20029;-74
2022/06/29 02:34:52;;;;;;;4.82;2.20;;;19.20;55.70;;;;;;4993149;28;20099;-74
2022/06/29 02:37:17;;;;;;;1.95;1.80;;;19.10;55.70;;;;;;4982877;28;20449;-74
2022/06/29 02:39:43;;;;;;;2.40;2.15;;;19.20;55.90;;;;;;4977821;28;20602;-73
2022/06/29 02:42:10;;;;;;;2.28;2.15;;;19.20;55.90;;;;;;5003977;28;20057;-73
2022/06/29 02:44:36;;;;;;;2.75;2.28;;;19.10;56.00;;;;;;5003577;28;20053;-73
2022/06/29 02:47:03;;;;;;;2.22;2.03;;;19.10;56.00;;;;;;4959964;28;20042;-74
2022/06/29 02:49:28;;;;;;;2.20;2.10;;;19.10;56.10;;;;;;4981744;28;20034;-74
2022/06/29 02:51:54;;;;;;;3.47;2.42;;;19.10;56.20;;;;;;4976519;28;20045;-73
2022/06/29 02:54:19;;;;;;;2.67;2.25;;;19.10;56.30;;;;;;5005628;28;20040;-73
2022/06/29 02:56:45;;;;;;;3.38;2.50;;;19.10;56.30;;;;;;5016658;28;20517;-73
2022/06/29 02:59:10;;;;;;;2.80;1.88;;;19.10;56.40;;;;;;5016707;28;20791;-73
2022/06/29 03:01:36;;;;;;;4.25;2.70;;;19.10;56.50;;;;;;5004673;28;20025;-73
2022/06/29 03:04:01;;;;;;;2.42;2.22;;;19.10;56.50;;;;;;5000920;28;20398;-73
2022/06/29 03:06:27;;;;;;;2.80;2.28;;;19.10;56.60;;;;;;5019954;28;20026;-73
2022/06/29 03:08:52;;;;;;;4.18;2.28;;;19.10;56.70;;;;;;4998623;28;20033;-73
2022/06/29 03:11:18;;;;;;;2.45;2.25;;;19.10;56.70;;;;;;4975997;28;20033;-73
2022/06/29 03:13:43;;;;;;;4.88;2.55;;;19.10;56.80;;;;;;5017577;28;20037;-74
2022/06/29 03:16:09;;;;;;;2.38;2.17;;;19.10;56.90;;;;;;5019073;28;20052;-73
2022/06/29 03:18:35;;;;;;;2.45;2.25;;;19.10;57.00;;;;;;5013437;28;20033;-73
2022/06/29 03:21:00;;;;;;;2.22;2.10;;;19.10;57.00;;;;;;4996735;28;20037;-73
2022/06/29 03:23:26;;;;;;;4.32;2.20;;;19.10;57.10;;;;;;5017850;28;20045;-73
2022/06/29 03:25:51;;;;;;;2.50;2.30;;;19.10;57.10;;;;;;5026459;28;20029;-74
2022/06/29 03:28:17;;;;;;;3.13;2.30;;;19.10;57.10;;;;;;5017434;28;20033;-73
2022/06/29 03:30:42;;;;;;;5.72;2.85;;;19.10;57.10;;;;;;5018634;28;20061;-73
2022/06/29 03:33:08;;;;;;;4.20;2.60;;;19.10;57.20;;;;;;5002942;28;20076;-72
2022/06/29 03:35:33;;;;;;;2.70;2.40;;;19.10;57.30;;;;;;5028611;28;20129;-73
2022/06/29 03:37:59;;;;;;;2.95;2.53;;;19.10;57.30;;;;;;5014707;28;20038;-72
2022/06/29 03:40:25;;;;;;;3.70;2.58;;;19.10;57.50;;;;;;5010587;28;20045;-72
2022/06/29 03:42:51;;;;;;;3.53;1.90;;;19.20;57.60;;;;;;5013273;28;20073;-73
2022/06/29 03:45:16;;;;;;;2.75;2.55;;;19.20;57.70;;;;;;5011598;28;20045;-72
2022/06/29 03:47:42;;;;;;;2.92;2.25;;;19.20;57.60;;;;;;5024843;28;20044;-72
2022/06/29 03:50:08;;;;;;;3.35;2.80;;;19.20;57.50;;;;;;5011172;28;20042;-72
2022/06/29 03:52:34;;;;;;;2.80;2.53;;;19.20;57.50;;;;;;5016016;28;20401;-72
2022/06/29 03:54:59;;;;;;;2.80;2.40;;;19.20;57.50;;;;;;4992504;28;20116;-72
2022/06/29 03:57:25;;;;;;;2.60;2.40;;;19.20;57.70;;;;;;5011172;28;20056;-73
2022/06/29 03:59:50;;;;;;;2.38;2.17;;;19.30;57.80;;;;;;5028734;28;20038;-72
2022/06/29 04:02:16;;;;;;;3.75;2.65;;;19.20;57.60;;;;;;5011010;28;20041;-73
2022/06/29 04:04:41;;;;;;;3.33;2.03;;;19.30;57.70;;;;;;5030331;28;20112;-74
2022/06/29 04:07:07;;;;;;;4.32;2.63;;;19.30;57.90;;;;;;5012698;28;20083;-72
2022/06/29 04:09:33;;;;;;;2.50;2.30;;;19.30;57.90;;;;;;5007774;28;20470;-72
2022/06/29 04:11:58;;;;;;;2.95;2.65;;;19.30;57.90;;;;;;5016260;28;21054;-73
2022/06/29 04:14:26;;;;;;;2.70;2.47;;;19.30;57.90;;;;;;5028357;28;20076;-73
2022/06/29 04:16:52;;;;;;;3.58;2.30;;;19.30;58.00;;;;;;4997150;28;20029;-73
2022/06/29 04:19:18;;;;;;;3.60;2.80;;;19.30;58.00;;;;;;4998999;28;20040;-72
2022/06/29 04:21:44;;;;;;;3.83;2.75;;;19.30;58.20;;;;;;5017541;28;20045;-73
2022/06/29 04:24:10;;;;;;;3.05;2.25;;;19.40;58.40;;;;;;5010109;28;20113;-73
2022/06/29 04:26:36;;;;;;;2.63;2.20;;;19.30;58.50;;;;;;5037685;28;20404;-72
2022/06/29 04:29:01;;;;;;;2.88;2.45;;;19.40;58.40;;;;;;5016957;28;20494;-72
2022/06/29 04:31:27;;;;;;;3.45;2.45;;;19.40;58.30;;;;;;5020155;28;20130;-73
2022/06/29 04:33:52;;;;;;;2.65;2.45;;;19.40;58.30;;;;;;4978107;28;20061;-73
2022/06/29 04:36:18;;;;;;;3.65;2.53;;;19.40;58.30;;;;;;5013968;28;20029;-72
2022/06/29 04:38:43;;;;;;;2.80;2.60;;;19.50;58.40;;;;;;5013076;28;20087;-73
2022/06/29 04:41:09;;;;;;;3.67;2.70;;;19.50;58.50;;;;;;5032325;28;20087;-72
2022/06/29 04:43:35;;;;;;;2.78;2.58;;;19.50;58.40;;;;;;4999415;28;20038;-73
2022/06/29 04:48:44;;;;;;;3.58;2.50;;;19.60;58.50;;;;;;5013051;28;20047;-72
2022/06/29 04:51:10;;;;;;;4.20;2.67;;;19.60;58.50;;;;;;5012691;28;20034;-74
2022/06/29 04:53:36;;;;;;;2.70;2.50;;;19.60;58.70;;;;;;5007015;28;20044;-73
2022/06/29 04:56:01;;;;;;;3.70;2.40;;;19.60;58.70;;;;;;5000172;28;20116;-72
2022/06/29 04:58:27;;;;;;;3.35;2.58;;;19.60;58.70;;;;;;5013089;28;20147;-72
2022/06/29 05:00:52;;;;;;;4.50;2.50;;;19.60;58.70;;;;;;5018558;28;20037;-73
2022/06/29 05:03:18;;;;;;;5.28;2.78;;;19.70;59.00;;;;;;4996454;28;20029;-73
2022/06/29 05:05:44;;;;;;;2.95;2.65;;;19.70;59.00;;;;;;5016446;28;20029;-72
2022/06/29 05:08:09;;;;;;;3.80;3.13;;;19.70;59.20;;;;;;4999829;28;20096;-72
2022/06/29 05:10:35;;;;;;;3.50;3.00;;;19.70;59.30;;;;;;4971174;28;20091;-73
2022/06/29 05:13:00;;;;;;;4.00;2.85;;;19.70;59.50;;;;;;5014627;28;20044;-72
2022/06/29 05:15:26;;;;;;;3.05;2.75;;;19.70;59.50;;;;;;5030688;28;20061;-72
2022/06/29 05:17:52;;;;;;;2.92;2.55;;;19.80;59.60;;;;;;5014261;28;20049;-73
2022/06/29 05:20:20;;;;;;;4.50;2.80;;;19.80;59.60;;;;;;4993694;28;20040;-72
2022/06/29 05:22:45;;;;;;;3.88;3.08;;;19.80;59.50;;;;;;5030246;28;20040;-73
2022/06/29 05:25:11;;;;;;;4.07;2.92;;;19.90;59.40;;;;;;5008145;28;20033;-72
2022/06/29 05:27:37;;;;;;;7.10;3.78;;;19.90;59.40;;;;;;5026578;28;20339;-73
2022/06/29 05:30:02;;;;;;;3.60;3.28;;;20.00;59.40;;;;;;4999832;28;20080;-72
2022/06/29 05:32:28;;;;;;;3.03;2.72;;;20.00;59.40;;;;;;5015311;28;20682;-72
2022/06/29 05:34:54;;;;;;;2.90;2.40;;;20.10;59.40;;;;;;5013915;28;20065;-72
2022/06/29 05:37:19;;;;;;;6.47;3.38;;;20.20;59.10;;;;;;4996323;28;20083;-72
2022/06/29 05:39:45;;;;;;;4.55;3.00;;;20.30;59.00;;;;;;5017919;28;20041;-72
2022/06/29 05:42:12;;;;;;;4.32;3.28;;;20.40;58.80;;;;;;5015285;28;20033;-72
2022/06/29 05:44:38;;;;;;;3.05;2.75;;;20.40;58.70;;;;;;5005359;28;20679;-72
2022/06/29 05:47:04;;;;;;;4.00;3.05;;;20.50;58.50;;;;;;4979447;28;20035;-72
2022/06/29 05:49:30;;;;;;;3.33;3.03;;;20.60;58.30;;;;;;4977799;28;20037;-72
2022/06/29 05:51:55;;;;;;;6.22;2.95;;;20.70;58.30;;;;;;5012454;28;20044;-72
2022/06/29 05:54:21;;;;;;;5.28;3.22;;;20.80;58.20;;;;;;5023391;28;20037;-73
2022/06/29 05:56:47;;;;;;;4.70;4.05;;;20.90;58.10;;;;;;4993359;28;20920;-72
2022/06/29 05:59:12;;;;;;;4.05;3.33;;;21.00;58.00;;;;;;5014248;28;20516;-72
2022/06/29 06:01:38;;;;;;;8.05;3.35;;;21.00;58.00;;;;;;4981816;28;20057;-72
2022/06/29 06:04:04;;;;;;;9.15;3.53;;;21.10;58.00;;;;;;4995811;28;20062;-73
2022/06/29 06:06:29;;;;;;;5.82;3.63;;;21.20;57.90;;;;;;5020567;28;20087;-72
2022/06/29 06:08:55;;;;;;;8.55;3.70;;;21.30;57.70;;;;;;5011916;28;20489;-72
2022/06/29 06:11:20;;;;;;;4.97;3.75;;;21.40;57.60;;;;;;5011146;28;20032;-72
2022/06/29 06:13:46;;;;;;;3.88;3.45;;;21.50;58.20;;;;;;5029495;28;20040;-73
2022/06/29 06:16:11;;;;;;;4.75;3.38;;;21.50;57.40;;;;;;4994712;28;20045;-73
2022/06/29 06:18:37;;;;;;;4.30;3.90;;;21.60;57.40;;;;;;4972002;28;20018;-72
2022/06/29 06:21:03;;;;;;;4.47;3.72;;;21.70;57.40;;;;;;5026284;28;20406;-72
2022/06/29 06:23:28;;;;;;;5.85;5.00;;;21.70;57.30;;;;;;5034396;28;20098;-72
2022/06/29 06:25:54;;;;;;;5.45;3.75;;;21.90;57.40;;;;;;5006796;28;20029;-73
2022/06/29 06:28:19;;;;;;;5.82;3.97;;;21.90;57.30;;;;;;4992696;28;20037;-72
2022/06/29 06:30:45;;;;;;;5.13;4.10;;;22.00;57.20;;;;;;5016151;28;20035;-72
2022/06/29 06:33:10;;;;;;;5.32;3.70;;;22.10;57.20;;;;;;4969647;28;20037;-72
2022/06/29 06:35:36;;;;;;;4.75;4.00;;;22.20;57.10;;;;;;5019292;28;20037;-72
2022/06/29 06:38:02;;;;;;;5.05;3.80;;;22.20;57.10;;;;;;4981107;28;20066;-73
2022/06/29 06:43:12;;;;;;;5.07;4.13;;;22.40;56.90;;;;;;5013466;28;20044;-72
2022/06/29 06:45:37;;;;;;;4.88;4.13;;;22.40;56.80;;;;;;5031705;28;20036;-72
2022/06/29 06:48:03;;;;;;;5.78;4.43;;;22.50;56.70;;;;;;5009250;28;20044;-72
2022/06/29 06:50:29;;;;;;;4.20;3.80;;;22.60;56.70;;;;;;5007517;28;20040;-72
2022/06/29 06:52:54;;;;;;;5.47;4.35;;;22.70;56.70;;;;;;5020231;28;20033;-73
2022/06/29 06:55:20;;;;;;;4.30;3.80;;;22.80;56.60;;;;;;5011519;28;21155;-72
2022/06/29 06:57:48;;;;;;;4.70;4.30;;;22.80;56.50;;;;;;5035231;28;20048;-72
2022/06/29 07:00:13;;;;;;;5.80;4.75;;;22.90;56.50;;;;;;5048994;28;20464;-72
2022/06/29 07:02:39;;;;;;;5.20;4.72;;;23.00;56.50;;;;;;5034091;28;20600;-72
2022/06/29 07:05:05;;;;;;;4.95;4.18;;;23.10;56.50;;;;;;5025564;28;20060;-73
2022/06/29 07:07:30;;;;;;;4.80;4.40;;;23.10;56.60;;;;;;5001839;28;20037;-72
2022/06/29 07:09:56;;;;;;;6.07;5.00;;;23.20;56.60;;;;;;5033881;28;20095;-73
2022/06/29 07:12:21;;;;;;;5.25;4.75;;;23.20;56.40;;;;;;5027060;28;20045;-74
2022/06/29 07:14:47;;;;;;;5.03;4.57;;;23.30;56.40;;;;;;5033578;28;20095;-73
2022/06/29 07:17:12;;;;;;;5.63;4.45;;;23.40;56.30;;;;;;5042864;28;20428;-72
2022/06/29 07:19:38;;;;;;;10.77;5.00;;;23.40;56.20;;;;;;5045110;28;20040;-72
2022/06/29 07:22:03;;;;;;;5.68;4.53;;;23.50;56.20;;;;;;5019203;28;20061;-72
2022/06/29 07:24:29;;;;;;;5.30;4.80;;;23.50;56.20;;;;;;5029469;28;20066;-72
2022/06/29 07:26:56;;;;;;;5.28;4.20;;;23.50;56.20;;;;;;5037613;28;20033;-72
2022/06/29 07:29:22;;;;;;;5.18;4.68;;;23.60;56.90;;;;;;5032172;28;20124;-73
2022/06/29 07:31:47;;;;;;;6.07;5.13;;;23.60;56.20;;;;;;5040798;28;20053;-71
2022/06/29 07:34:13;;;;;;;5.20;4.53;;;23.50;56.10;;;;;;5049797;28;20045;-72
2022/06/29 07:36:41;;;;;;;5.53;4.60;;;23.50;56.10;;;;;;5028402;28;20113;-72
2022/06/29 07:39:07;;;;;;;5.50;4.50;;;23.60;56.20;;;;;;5027571;28;20031;-73
2022/06/29 07:41:32;;;;;;;5.80;4.80;;;23.60;56.20;;;;;;5051159;28;20037;-72
2022/06/29 07:43:58;;;;;;;4.63;4.22;;;23.60;56.10;;;;;;5011696;28;20045;-72
2022/06/29 07:46:23;;;;;;;5.30;4.80;;;23.70;56.20;;;;;;4980405;28;20056;-73
2022/06/29 07:48:50;;;;;;;4.93;4.53;;;23.80;56.10;;;;;;4957267;28;20049;-73
2022/06/29 07:51:18;;;;;;;4.90;4.38;;;23.90;56.00;;;;;;5004642;28;20037;-71
2022/06/29 07:53:43;;;;;;;5.60;4.80;;;24.10;55.90;;;;;;5012258;28;20065;-72
2022/06/29 07:56:09;;;;;;;5.15;4.65;;;24.30;55.70;;;;;;5007061;28;20132;-73
2022/06/29 07:58:34;;;;;;;5.88;4.75;;;24.40;55.60;;;;;;5020767;28;20060;-72
2022/06/29 08:01:00;;;;;;;5.88;5.38;;;24.60;55.50;;;;;;5010637;28;20065;-72
2022/06/29 08:03:26;;;;;;;6.90;4.95;;;24.80;55.40;;;;;;5017825;28;20417;-72
2022/06/29 08:05:51;;;;;;;5.45;4.95;;;24.90;55.30;;;;;;4997150;28;20034;-72
2022/06/29 08:08:17;;;;;;;5.35;4.63;;;25.10;55.20;;;;;;5019369;28;20036;-72
2022/06/29 08:10:44;;;;;;;6.03;4.82;;;25.20;54.90;;;;;;5003761;28;20108;-71
2022/06/29 08:13:10;;;;;;;5.22;4.72;;;25.40;54.90;;;;;;5037814;28;20083;-73
2022/06/29 08:15:35;;;;;;;5.97;5.38;;;25.60;54.70;;;;;;5016085;28;20080;-73
2022/06/29 08:18:01;;;;;;;5.45;4.95;;;25.70;54.40;;;;;;4953781;28;20072;-73
2022/06/29 08:20:28;;;;;;;7.30;5.80;;;25.90;54.20;;;;;;5010601;28;20037;-72
2022/06/29 08:22:54;;;;;;;6.22;5.68;;;26.00;54.10;;;;;;5029459;28;20041;-72
2022/06/29 08:25:19;;;;;;;5.97;5.00;;;26.10;53.70;;;;;;5007118;28;20083;-72
2022/06/29 08:27:50;;;;;;;5.72;4.63;;;26.20;53.70;;;;;;5000963;28;20493;-72
2022/06/29 08:30:16;;;;;;;;;;;26.20;53.50;;;;;;5001808;28;20634;-74
2022/06/29 08:32:42;;;;;;;5.10;4.70;;;26.40;53.50;;;;;;5028927;28;19921;-72
2022/06/29 08:35:08;;;;;;;5.78;5.25;;;26.50;53.30;;;;;;5020003;28;20052;-72
2022/06/29 08:37:34;;;;;;;5.85;4.75;;;26.70;53.20;;;;;;5007557;28;20041;-73
2022/06/29 08:40:00;;;;;;;5.72;5.10;;;26.80;53.00;;;;;;5027325;28;20033;-72
2022/06/29 08:42:26;;;;;;;7.72;4.97;;;26.80;52.80;;;;;;5012773;28;20037;-72
2022/06/29 08:44:52;;;;;;;5.28;4.78;;;27.00;52.80;;;;;;5034632;28;20037;-72
2022/06/29 08:47:20;;;;;;;5.68;5.10;;;27.10;52.70;;;;;;5027549;28;20044;-73
2022/06/29 08:49:45;;;;;;;4.82;4.30;;;27.30;52.50;;;;;;5035449;28;20055;-72
2022/06/29 08:52:11;;;;;;;5.50;4.90;;;27.40;52.20;;;;;;5032249;28;20521;-73
2022/06/29 08:54:46;;;;;;;4.95;4.53;;;27.70;52.00;;;;;;5013011;28;20036;-72
2022/06/29 08:57:11;;;;;;;6.40;5.07;;;27.90;51.70;;;;;;5030938;28;20031;-72
2022/06/29 08:59:39;;;;;;;4.82;4.40;;;28.10;51.60;;;;;;5034162;28;20402;-72
2022/06/29 09:02:05;;;;;;;6.68;4.80;;;28.20;51.20;;;;;;5030622;28;20043;-72
2022/06/29 09:04:31;;;;;;;6.38;5.25;;;28.30;50.90;;;;;;5044862;28;20037;-73
2022/06/29 09:06:56;;;;;;;7.78;5.72;;;28.40;50.80;;;;;;5045259;28;20037;-73
2022/06/29 09:09:22;;;;;;;5.13;4.63;;;28.50;50.50;;;;;;5029597;28;20559;-72
2022/06/29 09:11:51;;;;;;;5.40;4.90;;;28.70;50.40;;;;;;5047843;28;20037;-72
2022/06/29 09:14:33;;;;;;;6.13;4.72;;;28.90;50.10;;;;;;5015117;28;20030;-73
2022/06/29 09:17:18;;;;;;;6.32;4.43;;;29.00;49.70;;;;;;5031142;28;20072;-73
2022/06/29 09:19:45;;;;;;;5.88;5.25;;;29.10;49.10;;;;;;5030053;28;20122;-72
2022/06/29 09:22:11;;;;;;;5.38;4.88;;;29.20;49.40;;;;;;5044179;28;20076;-72
2022/06/29 09:24:37;;;;;;;4.75;4.35;;;29.20;49.40;;;;;;5032771;28;20508;-73
2022/06/29 09:27:04;;;;;;;5.70;4.45;;;29.40;49.30;;;;;;5025064;28;20028;-73
2022/06/29 09:29:41;;;;;;;5.43;4.32;;;29.60;49.10;;;;;;5021834;28;20117;-73
2022/06/29 09:32:09;;;;;;;4.35;3.97;;;29.80;48.80;;;;;;5015528;28;20039;-73
2022/06/29 09:34:35;;;;;;;5.63;4.40;;;30.10;48.60;;;;;;5030156;28;20387;-73
2022/06/29 09:37:08;;;;;;;4.93;4.53;;;30.30;48.20;;;;;;5027095;28;20036;-73
2022/06/29 09:39:52;;;;;;;5.13;4.50;;;30.50;47.80;;;;;;5014598;28;20044;-73
2022/06/29 09:42:18;;;;;;;5.75;5.25;;;30.70;47.80;;;;;;5018237;28;20446;-74
2022/06/29 09:44:44;;;;;;;6.03;4.85;;;30.80;47.50;;;;;;5040612;28;20139;-72
2022/06/29 09:47:21;;;;;;;5.68;4.63;;;31.00;47.10;;;;;;5024644;28;21262;-73
2022/06/29 09:50:01;;;;;;;4.85;4.50;;;31.20;46.80;;;;;;5026327;28;20076;-73
2022/06/29 09:52:27;;;;;;;4.70;4.30;;;31.30;46.70;;;;;;5005197;28;20128;-73
2022/06/29 09:54:54;;;;;;;4.63;4.07;;;31.50;46.50;;;;;;5021181;28;20761;-73
2022/06/29 09:57:21;;;;;;;5.28;4.75;;;31.70;46.20;;;;;;5025709;28;20033;-72
2022/06/29 10:02:43;;;;;;;5.72;4.45;;;31.90;45.00;;;;;;5019674;28;20124;-73
2022/06/29 10:05:54;;;;;;;4.45;4.03;;;31.90;45.40;;;;;;5028639;28;20033;-73
2022/06/29 10:08:12;;;;;;;5.95;4.60;;;31.90;45.30;;;;;;4998844;28;20037;-73
2022/06/29 10:10:37;;;;;;;5.53;4.50;;;32.10;45.30;;;;;;5003223;28;20029;-73
2022/06/29 10:13:39;;;;;;;5.68;4.70;;;32.40;45.20;;;;;;5027500;28;20044;-74
2022/06/29 10:16:16;;;;;;;6.35;4.63;;;32.70;44.40;;;;;;5014939;28;20041;-73
2022/06/29 10:19:18;;;;;;;4.55;4.13;;;32.90;44.10;;;;;;5038554;28;20033;-73
2022/06/29 10:21:52;;;;;;;4.90;4.00;;;33.00;43.60;;;;;;5020554;28;20815;-74
2022/06/29 10:24:17;;;;;;;4.70;4.30;;;33.10;43.80;;;;;;5022851;28;20088;-74
2022/06/29 10:26:44;;;;;;;4.65;4.18;;;33.20;44.20;;;;;;5030344;28;20584;-74
2022/06/29 10:29:10;;;;;;;4.28;3.88;;;33.20;43.50;;;;;;5018762;28;20029;-73
2022/06/29 10:31:54;;;;;;;5.85;4.35;;;33.40;43.40;;;;;;5031731;28;20037;-74
2022/06/29 10:34:31;;;;;;;4.47;3.67;;;33.70;42.20;;;;;;5041480;28;20033;-73
2022/06/29 10:37:03;;;;;;;3.47;3.17;;;33.80;42.50;;;;;;5026756;28;20102;-74
2022/06/29 10:39:50;;;;;;;5.70;4.28;;;33.90;42.50;;;;;;5038901;28;20133;-73
2022/06/29 10:45:06;;;;;;;3.22;2.90;;;34.20;42.20;;;;;;5030231;28;20052;-73
2022/06/29 10:47:33;;;;;;;3.92;3.50;;;34.30;42.10;;;;;;5021297;28;21995;-74
2022/06/29 10:50:20;;;;;;;3.45;3.13;;;34.40;41.90;;;;;;5028980;28;20056;-74
2022/06/29 10:52:47;;;;;;;5.30;2.97;;;34.50;41.30;;;;;;5030606;28;20044;-74
2022/06/29 10:55:13;;;;;;;3.63;3.42;;;34.60;41.60;;;;;;5007557;28;20036;-73
2022/06/29 10:57:44;;;;;;;4.03;3.63;;;34.60;41.40;;;;;;4995522;28;20037;-74
2022/06/29 11:00:15;;;;;;;3.65;3.35;;;34.60;41.10;;;;;;5010666;28;20111;-74
2022/06/29 11:02:41;;;;;;;4.32;2.97;;;34.70;41.10;;;;;;4994352;28;20063;-74
2022/06/29 11:05:09;;;;;;;3.92;3.60;;;34.70;41.10;;;;;;5033357;28;20060;-75
2022/06/29 11:13:07;;;;;;;4.85;3.10;;;34.80;40.50;;;;;;5036017;28;20624;-73
2022/06/29 11:15:42;;;;;;;9.77;3.53;;;34.70;40.50;;;;;;5001395;28;20083;-73
2022/06/29 11:18:13;;;;;;;4.35;3.25;;;34.80;40.40;;;;;;5041725;28;20036;-73
2022/06/29 11:20:45;;;;;;;3.50;3.20;;;34.80;40.20;;;;;;5026018;28;20401;-74
2022/06/29 11:23:15;;;;;;;4.18;3.20;;;34.80;40.20;;;;;;5004281;28;20116;-73
2022/06/29 11:25:43;;;;;;;8.38;3.78;;;34.90;40.20;;;;;;5030614;28;20068;-74
2022/06/29 11:28:09;;;;;;;4.78;3.13;;;35.10;40.00;;;;;;5035930;28;20124;-74
2022/06/29 11:30:34;;;;;;;4.75;3.80;;;35.20;39.90;;;;;;5028046;28;20124;-74
2022/06/29 11:33:10;;;;;;;3.97;3.67;;;35.40;39.80;;;;;;5038669;28;20046;-74
2022/06/29 11:35:39;;;;;;;3.97;3.20;;;35.60;39.50;;;;;;5012919;28;20067;-74
2022/06/29 11:38:05;;;;;;;3.55;3.20;;;35.60;39.20;;;;;;5039682;28;20123;-74
2022/06/29 11:40:35;;;;;;;6.47;3.00;;;35.70;39.00;;;;;;5002426;28;20051;-74
2022/06/29 11:43:15;;;;;;;4.35;3.05;;;35.70;38.90;;;;;;5028988;28;20123;-73
2022/06/29 11:45:49;;;;;;;6.35;3.70;;;35.70;38.40;;;;;;5005613;28;20033;-73
2022/06/29 11:48:24;;;;;;;3.95;3.65;;;35.70;38.60;;;;;;5026877;28;20382;-73
2022/06/29 11:50:57;;;;;;;6.18;2.90;;;35.70;38.50;;;;;;5028592;28;20037;-74
2022/06/29 11:53:46;;;;;;;4.30;3.33;;;35.80;38.40;;;;;;5027206;28;20033;-75
2022/06/29 11:56:19;;;;;;;3.33;3.03;;;35.80;38.10;;;;;;5031665;28;20032;-73
2022/06/29 11:58:51;;;;;;;4.28;3.20;;;35.70;38.10;;;;;;4992229;28;20522;-74
2022/06/29 12:01:23;;;;;;;4.47;3.53;;;35.50;38.40;;;;;;5021633;28;20044;-74
2022/06/29 12:03:50;;;;;;;5.10;3.53;;;35.60;38.50;;;;;;5030073;28;20049;-73
2022/06/29 12:06:26;;;;;;;4.32;3.40;;;35.70;39.10;;;;;;5037815;28;20033;-74
2022/06/29 12:09:02;;;;;;;3.53;3.22;;;35.70;38.30;;;;;;5022361;28;20668;-73
2022/06/29 12:11:28;;;;;;;3.30;3.00;;;35.70;38.30;;;;;;5018204;28;20038;-74
2022/06/29 12:13:54;;;;;;;3.72;3.28;;;35.70;39.10;;;;;;5029722;28;20094;-73
2022/06/29 12:16:27;;;;;;;4.40;4.00;;;35.70;38.20;;;;;;5033098;28;20136;-73
2022/06/29 12:18:53;;;;;;;3.78;2.70;;;35.60;38.00;;;;;;4969683;28;20057;-74
2022/06/29 12:21:19;;;;;;;6.60;3.60;;;35.50;38.10;;;;;;5024415;28;20068;-74
2022/06/29 12:23:49;;;;;;;4.22;3.15;;;35.50;38.20;;;;;;5021434;28;20041;-75
2022/06/29 12:26:17;;;;;;;3.63;3.33;;;35.40;38.10;;;;;;4984127;28;20029;-73
2022/06/29 12:28:43;;;;;;;3.63;3.15;;;35.30;38.10;;;;;;5005356;28;20084;-74
2022/06/29 12:31:08;;;;;;;3.80;3.50;;;35.40;38.20;;;;;;5020651;28;20640;-74
2022/06/29 12:33:37;;;;;;;4.63;3.65;;;35.50;38.10;;;;;;5013456;28;20091;-73
2022/06/29 12:36:03;;;;;;;3.60;3.30;;;35.60;37.90;;;;;;5027011;28;20390;-73
2022/06/29 12:38:29;;;;;;;6.20;3.15;;;35.80;37.80;;;;;;5040354;28;20068;-74
2022/06/29 12:40:57;;;;;;;4.43;3.35;;;35.90;37.70;;;;;;5026940;28;20110;-75
2022/06/29 12:43:22;;;;;;;8.05;3.67;;;36.00;37.60;;;;;;5003574;28;20041;-73
2022/06/29 12:45:50;;;;;;;3.42;3.13;;;36.00;37.70;;;;;;5025267;28;20519;-74
2022/06/29 12:48:16;;;;;;;4.90;3.30;;;36.10;37.70;;;;;;5038072;28;20073;-74
2022/06/29 12:50:41;;;;;;;3.50;3.15;;;36.20;37.70;;;;;;5033519;28;20489;-74
2022/06/29 12:53:07;;;;;;;5.45;3.47;;;36.40;37.50;;;;;;5005232;28;21139;-74
2022/06/29 12:55:32;;;;;;;4.93;3.60;;;36.40;37.20;;;;;;5016890;28;20411;-73
2022/06/29 12:57:58;;;;;;;4.75;3.58;;;36.40;37.00;;;;;;5030583;28;20616;-73
2022/06/29 13:00:30;;;;;;;3.10;2.80;;;36.40;37.00;;;;;;4972281;28;20033;-73
2022/06/29 13:02:55;;;;;;;6.07;3.20;;;36.40;36.90;;;;;;5016393;28;20032;-73
2022/06/29 13:05:21;;;;;;;4.05;3.25;;;36.50;37.00;;;;;;5041991;28;20075;-73
2022/06/29 13:07:47;;;;;;;8.02;3.80;;;36.60;36.90;;;;;;5047665;28;20036;-74